sensor_id;sensor_type;location;lat;lon;timestamp;pressure;altitude;pressure_sealevel;temperature;humidity
26859;BME280;14429;48.346;16.338;2023-04-23T00:02:03;99200.63;;;15.23;55.81
26859;BME280;14429;48.346;16.338;2023-04-23T00:04:30;99209.19;;;15.36;55.51
26859;BME280;14429;48.346;16.338;2023-04-23T00:06:56;99198.31;;;15.28;55.01
26859;BME280;14429;48.346;16.338;2023-04-23T00:09:23;99199.88;;;15.31;54.25
26859;BME280;14429;48.346;16.338;2023-04-23T00:11:49;99204.53;;;15.38;55.05
26859;BME280;14429;48.346;16.338;2023-04-23T00:14:15;99197.22;;;15.57;54.87
26859;BME280;14429;48.346;16.338;2023-04-23T00:16:41;99194.94;;;15.62;54.18
26859;BME280;14429;48.346;16.338;2023-04-23T00:19:08;99194.84;;;15.45;54.96
26859;BME280;14429;48.346;16.338;2023-04-23T00:21:33;99178.34;;;15.66;54.47
26859;BME280;14429;48.346;16.338;2023-04-23T00:23:59;99181.59;;;15.70;54.37
26859;BME280;14429;48.346;16.338;2023-04-23T00:26:25;99180.25;;;15.83;54.02
26859;BME280;14429;48.346;16.338;2023-04-23T00:28:50;99186.38;;;15.76;53.87
26859;BME280;14429;48.346;16.338;2023-04-23T00:31:15;99180.69;;;15.79;54.04
26859;BME280;14429;48.346;16.338;2023-04-23T00:33:41;99184.22;;;15.17;53.71
26859;BME280;14429;48.346;16.338;2023-04-23T00:36:08;99173.59;;;15.25;53.48
26859;BME280;14429;48.346;16.338;2023-04-23T00:38:33;99181.94;;;15.22;54.22
26859;BME280;14429;48.346;16.338;2023-04-23T00:40:59;99177.78;;;15.37;54.90
26859;BME280;14429;48.346;16.338;2023-04-23T00:43:25;99179.19;;;14.77;54.76
26859;BME280;14429;48.346;16.338;2023-04-23T00:45:50;99176.50;;;14.77;56.20
26859;BME280;14429;48.346;16.338;2023-04-23T00:48:16;99173.09;;;15.12;56.08
26859;BME280;14429;48.346;16.338;2023-04-23T00:50:41;99168.31;;;14.87;54.44
26859;BME280;14429;48.346;16.338;2023-04-23T00:53:08;99165.97;;;14.47;55.77
26859;BME280;14429;48.346;16.338;2023-04-23T00:55:34;99165.16;;;15.01;56.23
26859;BME280;14429;48.346;16.338;2023-04-23T00:58:00;99173.50;;;15.08;54.38
26859;BME280;14429;48.346;16.338;2023-04-23T01:00:25;99165.75;;;14.95;54.98
26859;BME280;14429;48.346;16.338;2023-04-23T01:02:51;99173.50;;;14.89;54.54
26859;BME280;14429;48.346;16.338;2023-04-23T01:05:17;99164.66;;;14.70;54.87
26859;BME280;14429;48.346;16.338;2023-04-23T01:07:44;99172.63;;;14.34;55.92
26859;BME280;14429;48.346;16.338;2023-04-23T01:10:12;99165.53;;;14.24;56.24
26859;BME280;14429;48.346;16.338;2023-04-23T01:12:38;99169.63;;;14.46;57.47
26859;BME280;14429;48.346;16.338;2023-04-23T01:15:05;99175.06;;;14.91;56.71
26859;BME280;14429;48.346;16.338;2023-04-23T01:17:30;99179.03;;;15.06;55.68
26859;BME280;14429;48.346;16.338;2023-04-23T01:19:56;99174.28;;;14.26;56.34
26859;BME280;14429;48.346;16.338;2023-04-23T01:22:23;99179.50;;;14.55;57.07
26859;BME280;14429;48.346;16.338;2023-04-23T01:24:48;99175.13;;;14.26;56.76
26859;BME280;14429;48.346;16.338;2023-04-23T01:27:14;99170.50;;;14.19;57.19
26859;BME280;14429;48.346;16.338;2023-04-23T01:29:41;99166.78;;;14.66;57.22
26859;BME280;14429;48.346;16.338;2023-04-23T01:32:07;99174.72;;;14.21;56.59
26859;BME280;14429;48.346;16.338;2023-04-23T01:34:33;99168.84;;;13.88;57.54
26859;BME280;14429;48.346;16.338;2023-04-23T01:36:59;99169.22;;;14.23;58.32
26859;BME280;14429;48.346;16.338;2023-04-23T01:39:27;99171.19;;;14.58;56.57
26859;BME280;14429;48.346;16.338;2023-04-23T01:41:53;99176.22;;;14.80;56.75
26859;BME280;14429;48.346;16.338;2023-04-23T01:44:18;99173.31;;;14.45;56.85
26859;BME280;14429;48.346;16.338;2023-04-23T01:46:44;99177.69;;;14.28;56.63
26859;BME280;14429;48.346;16.338;2023-04-23T01:49:09;99171.06;;;14.31;57.32
26859;BME280;14429;48.346;16.338;2023-04-23T01:51:35;99173.19;;;14.37;57.20
26859;BME280;14429;48.346;16.338;2023-04-23T01:54:00;99169.22;;;14.41;57.05
26859;BME280;14429;48.346;16.338;2023-04-23T01:56:27;99170.91;;;14.24;56.50
26859;BME280;14429;48.346;16.338;2023-04-23T01:58:53;99175.72;;;14.39;56.55
26859;BME280;14429;48.346;16.338;2023-04-23T02:01:18;99167.66;;;14.39;56.65
26859;BME280;14429;48.346;16.338;2023-04-23T02:03:44;99174.00;;;14.47;56.73
26859;BME280;14429;48.346;16.338;2023-04-23T02:06:10;99176.28;;;14.42;55.99
26859;BME280;14429;48.346;16.338;2023-04-23T02:08:36;99174.66;;;14.86;56.77
26859;BME280;14429;48.346;16.338;2023-04-23T02:11:01;99176.81;;;14.18;56.25
26859;BME280;14429;48.346;16.338;2023-04-23T02:13:28;99173.72;;;14.22;57.57
26859;BME280;14429;48.346;16.338;2023-04-23T02:15:54;99186.88;;;13.77;57.77
26859;BME280;14429;48.346;16.338;2023-04-23T02:18:19;99177.19;;;13.85;57.52
26859;BME280;14429;48.346;16.338;2023-04-23T02:20:45;99179.16;;;13.74;58.01
26859;BME280;14429;48.346;16.338;2023-04-23T02:23:10;99174.75;;;13.73;58.18
26859;BME280;14429;48.346;16.338;2023-04-23T02:25:36;99173.94;;;13.91;58.72
26859;BME280;14429;48.346;16.338;2023-04-23T02:28:01;99177.69;;;13.61;57.79
26859;BME280;14429;48.346;16.338;2023-04-23T02:30:28;99174.75;;;13.64;58.60
26859;BME280;14429;48.346;16.338;2023-04-23T02:32:54;99183.25;;;13.87;57.61
26859;BME280;14429;48.346;16.338;2023-04-23T02:35:19;99178.31;;;13.83;57.94
26859;BME280;14429;48.346;16.338;2023-04-23T02:37:45;99173.59;;;13.57;58.18
26859;BME280;14429;48.346;16.338;2023-04-23T02:40:11;99176.88;;;13.31;58.95
26859;BME280;14429;48.346;16.338;2023-04-23T02:42:36;99181.03;;;13.15;59.37
26859;BME280;14429;48.346;16.338;2023-04-23T02:45:02;99168.09;;;13.20;60.41
26859;BME280;14429;48.346;16.338;2023-04-23T02:47:29;99172.63;;;13.28;60.14
26859;BME280;14429;48.346;16.338;2023-04-23T02:49:54;99177.13;;;13.19;59.45
26859;BME280;14429;48.346;16.338;2023-04-23T02:52:19;99180.88;;;13.16;60.18
26859;BME280;14429;48.346;16.338;2023-04-23T02:54:45;99183.81;;;13.04;60.14
26859;BME280;14429;48.346;16.338;2023-04-23T02:57:10;99175.69;;;12.94;60.19
26859;BME280;14429;48.346;16.338;2023-04-23T02:59:36;99178.06;;;12.88;60.04
26859;BME280;14429;48.346;16.338;2023-04-23T03:02:01;99180.13;;;13.05;60.02
26859;BME280;14429;48.346;16.338;2023-04-23T03:04:28;99183.50;;;13.07;59.95
26859;BME280;14429;48.346;16.338;2023-04-23T03:06:54;99182.28;;;13.11;59.90
26859;BME280;14429;48.346;16.338;2023-04-23T03:09:19;99179.22;;;13.15;59.50
26859;BME280;14429;48.346;16.338;2023-04-23T03:11:46;99179.97;;;13.26;59.07
26859;BME280;14429;48.346;16.338;2023-04-23T03:14:12;99177.97;;;13.28;60.26
26859;BME280;14429;48.346;16.338;2023-04-23T03:16:37;99183.06;;;13.22;59.30
26859;BME280;14429;48.346;16.338;2023-04-23T03:19:03;99179.28;;;13.04;59.39
26859;BME280;14429;48.346;16.338;2023-04-23T03:21:29;99184.50;;;13.06;59.47
26859;BME280;14429;48.346;16.338;2023-04-23T03:23:55;99182.97;;;13.03;59.05
26859;BME280;14429;48.346;16.338;2023-04-23T03:26:20;99175.84;;;13.22;59.92
26859;BME280;14429;48.346;16.338;2023-04-23T03:28:46;99182.56;;;13.37;59.25
26859;BME280;14429;48.346;16.338;2023-04-23T03:31:11;99173.44;;;13.58;59.87
26859;BME280;14429;48.346;16.338;2023-04-23T03:33:37;99177.34;;;13.93;59.75
26859;BME280;14429;48.346;16.338;2023-04-23T03:36:03;99172.88;;;14.31;58.81
26859;BME280;14429;48.346;16.338;2023-04-23T03:38:29;99183.72;;;14.67;57.42
26859;BME280;14429;48.346;16.338;2023-04-23T03:40:55;99181.00;;;14.85;56.78
26859;BME280;14429;48.346;16.338;2023-04-23T03:43:20;99187.22;;;14.95;56.54
26859;BME280;14429;48.346;16.338;2023-04-23T03:45:46;99176.19;;;14.89;56.57
26859;BME280;14429;48.346;16.338;2023-04-23T03:48:11;99183.13;;;15.10;56.15
26859;BME280;14429;48.346;16.338;2023-04-23T03:50:37;99173.47;;;15.17;55.69
26859;BME280;14429;48.346;16.338;2023-04-23T03:53:02;99182.38;;;15.27;55.30
26859;BME280;14429;48.346;16.338;2023-04-23T03:55:29;99182.06;;;15.30;55.18
26859;BME280;14429;48.346;16.338;2023-04-23T03:57:54;99184.22;;;15.17;53.49
26859;BME280;14429;48.346;16.338;2023-04-23T04:00:20;99180.91;;;15.32;54.91
26859;BME280;14429;48.346;16.338;2023-04-23T04:02:45;99188.63;;;14.99;54.06
26859;BME280;14429;48.346;16.338;2023-04-23T04:05:11;99200.75;;;15.03;53.64
26859;BME280;14429;48.346;16.338;2023-04-23T04:07:36;99187.25;;;15.40;54.64
26859;BME280;14429;48.346;16.338;2023-04-23T04:10:02;99189.63;;;15.43;54.60
26859;BME280;14429;48.346;16.338;2023-04-23T04:12:29;99199.19;;;15.55;54.41
26859;BME280;14429;48.346;16.338;2023-04-23T04:14:54;99197.50;;;15.54;54.44
26859;BME280;14429;48.346;16.338;2023-04-23T04:17:19;99200.59;;;15.59;54.14
26859;BME280;14429;48.346;16.338;2023-04-23T04:19:45;99205.38;;;15.65;53.92
26859;BME280;14429;48.346;16.338;2023-04-23T04:22:10;99199.72;;;15.68;53.75
26859;BME280;14429;48.346;16.338;2023-04-23T04:24:36;99201.69;;;15.66;53.84
26859;BME280;14429;48.346;16.338;2023-04-23T04:27:01;99201.53;;;15.67;53.91
26859;BME280;14429;48.346;16.338;2023-04-23T04:29:28;99211.25;;;15.78;53.62
26859;BME280;14429;48.346;16.338;2023-04-23T04:31:54;99210.06;;;15.90;53.10
26859;BME280;14429;48.346;16.338;2023-04-23T04:34:19;99208.47;;;15.96;52.90
26859;BME280;14429;48.346;16.338;2023-04-23T04:36:45;99207.16;;;16.10;52.60
26859;BME280;14429;48.346;16.338;2023-04-23T04:39:10;99213.84;;;16.23;52.34
26859;BME280;14429;48.346;16.338;2023-04-23T04:41:36;99212.78;;;16.33;51.89
26859;BME280;14429;48.346;16.338;2023-04-23T04:44:01;99210.16;;;16.41;51.66
26859;BME280;14429;48.346;16.338;2023-04-23T04:46:28;99214.47;;;16.51;51.43
26859;BME280;14429;48.346;16.338;2023-04-23T04:48:54;99224.00;;;16.63;51.03
26859;BME280;14429;48.346;16.338;2023-04-23T04:51:19;99219.00;;;16.68;50.74
26859;BME280;14429;48.346;16.338;2023-04-23T04:53:45;99226.34;;;16.58;51.12
26859;BME280;14429;48.346;16.338;2023-04-23T04:56:10;99235.72;;;16.54;51.01
26859;BME280;14429;48.346;16.338;2023-04-23T04:58:36;99223.94;;;16.55;50.91
26859;BME280;14429;48.346;16.338;2023-04-23T05:01:01;99232.84;;;16.56;51.12
26859;BME280;14429;48.346;16.338;2023-04-23T05:03:28;99237.69;;;16.52;51.05
26859;BME280;14429;48.346;16.338;2023-04-23T05:05:54;99232.31;;;16.52;51.08
26859;BME280;14429;48.346;16.338;2023-04-23T05:08:19;99240.00;;;16.47;51.13
26859;BME280;14429;48.346;16.338;2023-04-23T05:10:44;99238.63;;;16.44;51.25
26859;BME280;14429;48.346;16.338;2023-04-23T05:13:10;99236.41;;;16.39;51.40
26859;BME280;14429;48.346;16.338;2023-04-23T05:15:35;99242.63;;;16.40;51.40
26859;BME280;14429;48.346;16.338;2023-04-23T05:18:02;99235.00;;;16.35;51.48
26859;BME280;14429;48.346;16.338;2023-04-23T05:20:29;99242.25;;;16.35;51.50
26859;BME280;14429;48.346;16.338;2023-04-23T05:22:55;99252.13;;;16.34;51.73
26859;BME280;14429;48.346;16.338;2023-04-23T05:25:20;99247.75;;;16.33;51.65
26859;BME280;14429;48.346;16.338;2023-04-23T05:27:46;99248.06;;;16.30;51.60
26859;BME280;14429;48.346;16.338;2023-04-23T05:30:11;99244.81;;;16.27;51.77
26859;BME280;14429;48.346;16.338;2023-04-23T05:32:37;99251.22;;;16.26;51.98
26859;BME280;14429;48.346;16.338;2023-04-23T05:35:03;99247.75;;;16.16;52.16
26859;BME280;14429;48.346;16.338;2023-04-23T05:37:30;99259.47;;;16.15;52.16
26859;BME280;14429;48.346;16.338;2023-04-23T05:39:56;99263.72;;;16.08;52.42
26859;BME280;14429;48.346;16.338;2023-04-23T05:42:21;99251.28;;;16.07;52.43
26859;BME280;14429;48.346;16.338;2023-04-23T05:44:46;99262.47;;;16.12;52.32
26859;BME280;14429;48.346;16.338;2023-04-23T05:47:13;99253.13;;;16.07;52.04
26859;BME280;14429;48.346;16.338;2023-04-23T05:49:38;99259.22;;;16.09;52.16
26859;BME280;14429;48.346;16.338;2023-04-23T05:52:04;99262.28;;;16.23;51.29
26859;BME280;14429;48.346;16.338;2023-04-23T05:54:31;99257.09;;;16.73;50.70
26859;BME280;14429;48.346;16.338;2023-04-23T05:56:56;99264.38;;;16.98;50.05
26859;BME280;14429;48.346;16.338;2023-04-23T05:59:22;99267.56;;;17.10;49.51
26859;BME280;14429;48.346;16.338;2023-04-23T06:01:48;99258.94;;;17.24;49.18
26859;BME280;14429;48.346;16.338;2023-04-23T06:04:13;99256.56;;;17.21;49.28
26859;BME280;14429;48.346;16.338;2023-04-23T06:06:39;99261.75;;;17.05;49.45
26859;BME280;14429;48.346;16.338;2023-04-23T06:09:05;99258.47;;;17.11;49.49
26859;BME280;14429;48.346;16.338;2023-04-23T06:11:32;99273.28;;;17.07;49.51
26859;BME280;14429;48.346;16.338;2023-04-23T06:13:57;99266.75;;;17.35;48.90
26859;BME280;14429;48.346;16.338;2023-04-23T06:16:23;99263.59;;;17.39;48.89
26859;BME280;14429;48.346;16.338;2023-04-23T06:18:49;99260.81;;;17.56;48.33
26859;BME280;14429;48.346;16.338;2023-04-23T06:21:15;99266.44;;;17.63;47.66
26859;BME280;14429;48.346;16.338;2023-04-23T06:23:40;99273.94;;;17.52;48.44
26859;BME280;14429;48.346;16.338;2023-04-23T06:26:06;99265.16;;;17.50;48.55
26859;BME280;14429;48.346;16.338;2023-04-23T06:28:32;99261.88;;;17.63;48.21
26859;BME280;14429;48.346;16.338;2023-04-23T06:30:58;99275.69;;;17.60;48.23
26859;BME280;14429;48.346;16.338;2023-04-23T06:33:24;99275.31;;;17.55;48.15
26859;BME280;14429;48.346;16.338;2023-04-23T06:35:49;99271.19;;;17.44;48.62
26859;BME280;14429;48.346;16.338;2023-04-23T06:38:15;99264.91;;;17.60;49.17
26859;BME280;14429;48.346;16.338;2023-04-23T06:40:40;99259.34;;;17.62;48.35
26859;BME280;14429;48.346;16.338;2023-04-23T06:43:05;99264.94;;;17.68;48.09
26859;BME280;14429;48.346;16.338;2023-04-23T06:45:32;99264.94;;;17.68;47.98
26859;BME280;14429;48.346;16.338;2023-04-23T06:47:58;99256.81;;;17.60;48.05
26859;BME280;14429;48.346;16.338;2023-04-23T06:50:23;99264.53;;;17.55;48.11
26859;BME280;14429;48.346;16.338;2023-04-23T06:52:49;99264.13;;;17.43;48.58
26859;BME280;14429;48.346;16.338;2023-04-23T06:55:14;99268.13;;;17.39;48.72
26859;BME280;14429;48.346;16.338;2023-04-23T06:57:39;99266.22;;;17.56;48.49
26859;BME280;14429;48.346;16.338;2023-04-23T07:00:06;99262.94;;;17.70;47.60
26859;BME280;14429;48.346;16.338;2023-04-23T07:02:33;99258.97;;;17.57;48.34
26859;BME280;14429;48.346;16.338;2023-04-23T07:04:58;99267.91;;;17.57;47.94
26859;BME280;14429;48.346;16.338;2023-04-23T07:07:24;99259.50;;;17.60;47.85
26859;BME280;14429;48.346;16.338;2023-04-23T07:09:49;99258.88;;;17.66;47.78
26859;BME280;14429;48.346;16.338;2023-04-23T07:12:15;99263.69;;;17.30;48.60
26859;BME280;14429;48.346;16.338;2023-04-23T07:14:40;99260.50;;;17.59;48.22
26859;BME280;14429;48.346;16.338;2023-04-23T07:17:06;99257.66;;;17.61;48.90
26859;BME280;14429;48.346;16.338;2023-04-23T07:19:33;99257.13;;;17.57;48.46
26859;BME280;14429;48.346;16.338;2023-04-23T07:21:58;99251.41;;;17.60;48.37
26859;BME280;14429;48.346;16.338;2023-04-23T07:24:23;99254.50;;;17.65;48.01
26859;BME280;14429;48.346;16.338;2023-04-23T07:26:49;99251.09;;;17.63;48.32
26859;BME280;14429;48.346;16.338;2023-04-23T07:29:14;99256.88;;;17.76;48.73
26859;BME280;14429;48.346;16.338;2023-04-23T07:31:40;99260.47;;;17.52;48.51
26859;BME280;14429;48.346;16.338;2023-04-23T07:34:05;99254.81;;;17.37;48.79
26859;BME280;14429;48.346;16.338;2023-04-23T07:36:32;99262.09;;;17.45;48.82
26859;BME280;14429;48.346;16.338;2023-04-23T07:38:57;99259.66;;;17.84;49.13
26859;BME280;14429;48.346;16.338;2023-04-23T07:41:23;99259.09;;;18.06;48.40
26859;BME280;14429;48.346;16.338;2023-04-23T07:43:49;99259.31;;;18.12;48.34
26859;BME280;14429;48.346;16.338;2023-04-23T07:46:14;99254.31;;;18.97;46.71
26859;BME280;14429;48.346;16.338;2023-04-23T07:48:39;99246.28;;;18.64;46.12
26859;BME280;14429;48.346;16.338;2023-04-23T07:51:05;99252.28;;;18.35;46.76
26859;BME280;14429;48.346;16.338;2023-04-23T07:53:32;99251.19;;;18.76;48.11
26859;BME280;14429;48.346;16.338;2023-04-23T07:55:57;99248.75;;;19.14;45.98
26859;BME280;14429;48.346;16.338;2023-04-23T07:58:23;99251.59;;;18.89;46.50
26859;BME280;14429;48.346;16.338;2023-04-23T08:00:49;99253.56;;;19.66;44.88
26859;BME280;14429;48.346;16.338;2023-04-23T08:03:14;99246.31;;;19.58;43.79
26859;BME280;14429;48.346;16.338;2023-04-23T08:05:40;99252.22;;;19.85;44.13
26859;BME280;14429;48.346;16.338;2023-04-23T08:08:05;99242.97;;;20.10;43.71
26859;BME280;14429;48.346;16.338;2023-04-23T08:10:32;99247.81;;;20.30;42.66
26859;BME280;14429;48.346;16.338;2023-04-23T08:12:58;99251.84;;;20.34;44.18
26859;BME280;14429;48.346;16.338;2023-04-23T08:15:23;99251.06;;;20.18;43.54
26859;BME280;14429;48.346;16.338;2023-04-23T08:17:49;99249.75;;;20.74;42.16
26859;BME280;14429;48.346;16.338;2023-04-23T08:20:14;99250.91;;;20.57;42.67
26859;BME280;14429;48.346;16.338;2023-04-23T08:22:40;99251.97;;;20.78;42.38
26859;BME280;14429;48.346;16.338;2023-04-23T08:25:06;99255.16;;;20.06;42.42
26859;BME280;14429;48.346;16.338;2023-04-23T08:27:33;99250.56;;;19.53;43.55
26859;BME280;14429;48.346;16.338;2023-04-23T08:29:58;99260.72;;;18.88;45.16
26859;BME280;14429;48.346;16.338;2023-04-23T08:32:24;99252.81;;;18.46;46.29
26859;BME280;14429;48.346;16.338;2023-04-23T08:34:49;99249.25;;;17.97;47.62
26859;BME280;14429;48.346;16.338;2023-04-23T08:37:15;99250.13;;;18.38;47.12
26859;BME280;14429;48.346;16.338;2023-04-23T08:39:40;99243.47;;;19.36;46.32
26859;BME280;14429;48.346;16.338;2023-04-23T08:42:09;99241.91;;;19.65;44.83
26859;BME280;14429;48.346;16.338;2023-04-23T08:44:37;99249.88;;;19.59;45.90
26859;BME280;14429;48.346;16.338;2023-04-23T08:47:06;99240.09;;;19.42;46.45
26859;BME280;14429;48.346;16.338;2023-04-23T08:49:35;99233.75;;;20.26;45.11
26859;BME280;14429;48.346;16.338;2023-04-23T08:52:09;99230.47;;;20.39;44.49
26859;BME280;14429;48.346;16.338;2023-04-23T08:54:40;99229.38;;;20.55;43.94
26859;BME280;14429;48.346;16.338;2023-04-23T08:57:08;99239.28;;;20.33;43.44
26859;BME280;14429;48.346;16.338;2023-04-23T08:59:34;99232.00;;;20.41;44.65
26859;BME280;14429;48.346;16.338;2023-04-23T09:02:01;99237.75;;;20.38;44.86
26859;BME280;14429;48.346;16.338;2023-04-23T09:04:28;99229.78;;;20.07;43.82
26859;BME280;14429;48.346;16.338;2023-04-23T09:06:54;99229.78;;;20.07;45.14
26859;BME280;14429;48.346;16.338;2023-04-23T09:09:20;99230.19;;;19.96;44.68
26859;BME280;14429;48.346;16.338;2023-04-23T09:11:47;99222.06;;;19.96;45.98
26859;BME280;14429;48.346;16.338;2023-04-23T09:14:13;99226.34;;;20.21;45.96
26859;BME280;14429;48.346;16.338;2023-04-23T09:16:38;99220.41;;;19.79;43.90
26859;BME280;14429;48.346;16.338;2023-04-23T09:19:06;99220.78;;;20.44;45.81
26859;BME280;14429;48.346;16.338;2023-04-23T09:21:34;99220.84;;;20.66;45.28
26859;BME280;14429;48.346;16.338;2023-04-23T09:24:03;99209.78;;;20.46;44.92
26859;BME280;14429;48.346;16.338;2023-04-23T09:26:29;99209.84;;;20.38;44.68
26859;BME280;14429;48.346;16.338;2023-04-23T09:28:54;99205.25;;;20.38;44.20
26859;BME280;14429;48.346;16.338;2023-04-23T09:31:20;99209.22;;;20.58;44.83
26859;BME280;14429;48.346;16.338;2023-04-23T09:33:50;99215.94;;;20.32;44.86
26859;BME280;14429;48.346;16.338;2023-04-23T09:36:19;99216.66;;;20.64;45.49
26859;BME280;14429;48.346;16.338;2023-04-23T09:38:45;99210.44;;;20.48;45.68
26859;BME280;14429;48.346;16.338;2023-04-23T09:41:21;99210.28;;;20.49;44.71
26859;BME280;14429;48.346;16.338;2023-04-23T09:43:46;99206.22;;;20.45;44.68
26859;BME280;14429;48.346;16.338;2023-04-23T09:46:12;99210.66;;;20.38;45.78
26859;BME280;14429;48.346;16.338;2023-04-23T09:48:39;99202.19;;;20.41;45.63
26859;BME280;14429;48.346;16.338;2023-04-23T09:51:05;99208.34;;;20.27;45.25
26859;BME280;14429;48.346;16.338;2023-04-23T09:53:39;99206.13;;;20.31;45.91
26859;BME280;14429;48.346;16.338;2023-04-23T09:56:05;99199.94;;;20.23;45.61
26859;BME280;14429;48.346;16.338;2023-04-23T09:58:31;99207.03;;;20.24;45.11
26859;BME280;14429;48.346;16.338;2023-04-23T10:01:05;99209.00;;;20.37;46.36
26859;BME280;14429;48.346;16.338;2023-04-23T10:03:31;99195.84;;;20.26;45.41
26859;BME280;14429;48.346;16.338;2023-04-23T10:05:57;99197.63;;;20.12;45.22
26859;BME280;14429;48.346;16.338;2023-04-23T10:08:23;99187.66;;;20.34;45.69
26859;BME280;14429;48.346;16.338;2023-04-23T10:10:50;99187.91;;;20.47;45.17
26859;BME280;14429;48.346;16.338;2023-04-23T10:13:16;99187.47;;;20.66;45.57
26859;BME280;14429;48.346;16.338;2023-04-23T10:15:42;99186.47;;;20.67;45.09
26859;BME280;14429;48.346;16.338;2023-04-23T10:18:10;99168.34;;;20.89;45.11
26859;BME280;14429;48.346;16.338;2023-04-23T10:20:37;99162.53;;;20.92;44.55
26859;BME280;14429;48.346;16.338;2023-04-23T10:23:03;99164.22;;;20.93;43.96
26859;BME280;14429;48.346;16.338;2023-04-23T10:25:30;99166.75;;;20.95;44.20
26859;BME280;14429;48.346;16.338;2023-04-23T10:27:57;99160.56;;;21.23;44.20
26859;BME280;14429;48.346;16.338;2023-04-23T10:30:24;99144.63;;;21.42;44.36
26859;BME280;14429;48.346;16.338;2023-04-23T10:32:49;99137.84;;;21.52;43.30
26859;BME280;14429;48.346;16.338;2023-04-23T10:35:15;99136.94;;;20.73;42.52
26859;BME280;14429;48.346;16.338;2023-04-23T10:37:40;99138.44;;;20.97;43.83
26859;BME280;14429;48.346;16.338;2023-04-23T10:40:08;99141.44;;;21.02;43.81
26859;BME280;14429;48.346;16.338;2023-04-23T10:42:34;99136.41;;;21.28;43.37
26859;BME280;14429;48.346;16.338;2023-04-23T10:45:08;99131.72;;;21.22;42.58
26859;BME280;14429;48.346;16.338;2023-04-23T10:47:36;99129.22;;;21.20;43.22
26859;BME280;14429;48.346;16.338;2023-04-23T10:50:17;99135.09;;;21.24;43.46
26859;BME280;14429;48.346;16.338;2023-04-23T10:52:43;99134.38;;;21.30;43.12
26859;BME280;14429;48.346;16.338;2023-04-23T10:55:15;99134.88;;;21.11;43.48
26859;BME280;14429;48.346;16.338;2023-04-23T10:57:54;99124.78;;;21.41;43.08
26859;BME280;14429;48.346;16.338;2023-04-23T11:00:22;99118.84;;;21.24;43.09
26859;BME280;14429;48.346;16.338;2023-04-23T11:02:49;99124.72;;;21.27;42.40
26859;BME280;14429;48.346;16.338;2023-04-23T11:05:15;99130.03;;;21.21;42.20
26859;BME280;14429;48.346;16.338;2023-04-23T11:07:40;99122.09;;;21.05;44.24
26859;BME280;14429;48.346;16.338;2023-04-23T11:10:10;99121.75;;;21.00;43.00
26859;BME280;14429;48.346;16.338;2023-04-23T11:12:38;99126.00;;;21.03;42.71
26859;BME280;14429;48.346;16.338;2023-04-23T11:15:10;99123.47;;;21.01;43.71
26859;BME280;14429;48.346;16.338;2023-04-23T11:17:58;99127.00;;;20.87;43.80
26859;BME280;14429;48.346;16.338;2023-04-23T11:20:24;99124.13;;;20.67;44.57
26859;BME280;14429;48.346;16.338;2023-04-23T11:22:50;99118.84;;;20.87;42.23
26859;BME280;14429;48.346;16.338;2023-04-23T11:25:19;99107.56;;;21.49;42.67
26859;BME280;14429;48.346;16.338;2023-04-23T11:27:46;99106.88;;;21.33;42.93
26859;BME280;14429;48.346;16.338;2023-04-23T11:30:13;99108.53;;;21.05;42.78
26859;BME280;14429;48.346;16.338;2023-04-23T11:32:40;99097.88;;;20.81;44.89
26859;BME280;14429;48.346;16.338;2023-04-23T11:35:07;99093.28;;;21.18;44.28
26859;BME280;14429;48.346;16.338;2023-04-23T11:37:37;99098.28;;;21.43;44.39
26859;BME280;14429;48.346;16.338;2023-04-23T11:40:05;99092.63;;;21.88;43.03
26859;BME280;14429;48.346;16.338;2023-04-23T11:42:30;99089.50;;;21.41;42.13
26859;BME280;14429;48.346;16.338;2023-04-23T11:44:56;99084.81;;;21.35;43.08
26859;BME280;14429;48.346;16.338;2023-04-23T11:47:24;99073.16;;;21.70;42.89
26859;BME280;14429;48.346;16.338;2023-04-23T11:49:50;99069.81;;;21.68;42.67
26859;BME280;14429;48.346;16.338;2023-04-23T11:52:17;99073.69;;;21.94;42.18
26859;BME280;14429;48.346;16.338;2023-04-23T11:54:42;99069.09;;;21.94;41.50
26859;BME280;14429;48.346;16.338;2023-04-23T11:57:07;99056.28;;;21.88;40.94
26859;BME280;14429;48.346;16.338;2023-04-23T11:59:33;99067.22;;;21.95;40.74
26859;BME280;14429;48.346;16.338;2023-04-23T12:01:58;99072.31;;;21.84;40.85
26859;BME280;14429;48.346;16.338;2023-04-23T12:04:25;99063.66;;;21.94;41.73
26859;BME280;14429;48.346;16.338;2023-04-23T12:06:51;99065.56;;;21.94;39.83
26859;BME280;14429;48.346;16.338;2023-04-23T12:09:20;99051.31;;;21.57;42.09
26859;BME280;14429;48.346;16.338;2023-04-23T12:11:45;99054.47;;;21.18;43.52
26859;BME280;14429;48.346;16.338;2023-04-23T12:14:12;99049.91;;;21.82;40.90
26859;BME280;14429;48.346;16.338;2023-04-23T12:16:39;99057.84;;;21.48;41.20
26859;BME280;14429;48.346;16.338;2023-04-23T12:19:09;99048.56;;;21.71;40.86
26859;BME280;14429;48.346;16.338;2023-04-23T12:21:46;99048.00;;;21.76;41.13
26859;BME280;14429;48.346;16.338;2023-04-23T12:24:11;99043.31;;;21.56;40.89
26859;BME280;14429;48.346;16.338;2023-04-23T12:26:38;99045.28;;;21.96;41.06
26859;BME280;14429;48.346;16.338;2023-04-23T12:29:06;99052.78;;;21.17;41.62
26859;BME280;14429;48.346;16.338;2023-04-23T12:31:32;99050.97;;;20.81;42.41
26859;BME280;14429;48.346;16.338;2023-04-23T12:34:00;99053.19;;;20.41;43.24
26859;BME280;14429;48.346;16.338;2023-04-23T12:36:27;99061.38;;;20.33;43.12
26859;BME280;14429;48.346;16.338;2023-04-23T12:38:53;99049.16;;;20.37;43.50
26859;BME280;14429;48.346;16.338;2023-04-23T12:41:18;99054.59;;;20.74;41.72
26859;BME280;14429;48.346;16.338;2023-04-23T12:43:45;99039.97;;;20.97;41.79
26859;BME280;14429;48.346;16.338;2023-04-23T12:46:11;99033.41;;;20.91;41.15